Time;durP1;ratioP1;P1;durP2;ratioP2;P2;SDS_P1;SDS_P2;PMS_P1;PMS_P2;Temp;Humidity;BMP_temperature;BMP_pressure;BME280_temperature;BME280_humidity;BME280_pressure;Samples;Min_cycle;Max_cycle;Signal;HPM_P1;HPM_P2
2021/11/09 00:02:12;;;;;;;14.90;6.90;;;7.30;99.90;;;;;;5053673;28;20021;-42
2021/11/09 00:04:41;;;;;;;14.93;7.75;;;7.30;99.90;;;;;;5066740;28;20447;-42
2021/11/09 00:07:24;;;;;;;14.25;7.35;;;7.30;99.90;;;;;;5053464;28;20056;-43
2021/11/09 00:09:58;;;;;;;;;;;7.30;99.90;;;;;;5062147;28;20124;-43
2021/11/09 00:12:35;;;;;;;13.23;6.90;;;7.20;99.90;;;;;;5046722;28;20005;-43
2021/11/09 00:15:05;;;;;;;14.35;7.47;;;7.20;99.90;;;;;;5043241;28;20051;-43
2021/11/09 00:17:31;;;;;;;13.85;7.15;;;7.20;99.90;;;;;;5050571;28;20024;-43
2021/11/09 00:19:57;;;;;;;15.02;7.80;;;7.10;99.90;;;;;;5046829;28;20556;-43
2021/11/09 00:22:24;;;;;;;13.82;7.00;;;7.10;99.90;;;;;;5047441;28;20021;-43
2021/11/09 00:24:50;;;;;;;13.52;7.30;;;7.10;99.90;;;;;;5048866;28;20028;-42
2021/11/09 00:27:16;;;;;;;16.67;7.60;;;7.10;99.90;;;;;;5051505;28;20032;-43
2021/11/09 00:29:41;;;;;;;14.77;7.88;;;7.10;99.90;;;;;;5043126;28;20017;-42
2021/11/09 00:32:08;;;;;;;14.27;7.65;;;7.10;99.90;;;;;;5050301;28;20055;-44
2021/11/09 00:34:35;;;;;;;14.15;7.40;;;7.10;99.90;;;;;;5048576;28;20032;-43
2021/11/09 00:37:01;;;;;;;16.77;8.15;;;7.00;99.90;;;;;;5049833;28;20028;-43
2021/11/09 00:39:27;;;;;;;15.68;7.78;;;7.00;99.90;;;;;;5046956;28;20515;-43
2021/11/09 00:41:52;;;;;;;15.50;8.45;;;7.00;99.90;;;;;;5046421;28;20029;-44
2021/11/09 00:44:18;;;;;;;16.30;8.48;;;7.00;99.90;;;;;;5051566;28;20412;-45
2021/11/09 00:46:44;;;;;;;14.55;8.25;;;6.90;99.90;;;;;;5045775;28;20532;-44
2021/11/09 00:49:09;;;;;;;16.70;8.88;;;6.90;99.90;;;;;;5061871;28;20038;-44
2021/11/09 00:51:35;;;;;;;14.70;8.40;;;6.90;99.90;;;;;;5056265;28;20045;-44
2021/11/09 00:54:01;;;;;;;14.40;7.90;;;6.90;99.90;;;;;;5061180;28;20027;-43
2021/11/09 00:56:30;;;;;;;16.70;7.97;;;6.90;99.90;;;;;;5049110;28;20136;-43
2021/11/09 00:58:55;;;;;;;15.20;7.93;;;6.80;99.90;;;;;;5061684;28;20380;-48
2021/11/09 01:01:21;;;;;;;18.55;8.43;;;6.80;99.90;;;;;;5050290;28;20037;-44
2021/11/09 01:03:46;;;;;;;12.90;7.93;;;6.80;99.90;;;;;;5058622;28;20423;-43
2021/11/09 01:06:12;;;;;;;15.18;8.27;;;6.80;99.90;;;;;;5051357;28;20032;-43
2021/11/09 01:08:39;;;;;;;16.30;7.45;;;6.70;99.90;;;;;;5057418;28;20640;-44
2021/11/09 01:11:05;;;;;;;13.70;7.60;;;6.70;99.90;;;;;;5053518;28;20091;-43
2021/11/09 01:13:31;;;;;;;15.48;8.07;;;6.70;99.90;;;;;;5055331;28;20020;-43
2021/11/09 01:15:58;;;;;;;11.15;7.20;;;6.70;99.90;;;;;;5056090;28;20077;-44
2021/11/09 01:18:36;;;;;;;15.02;8.40;;;6.70;99.90;;;;;;5051910;28;20025;-42
2021/11/09 01:21:03;;;;;;;14.48;7.55;;;6.60;99.90;;;;;;5057175;28;20021;-44
2021/11/09 01:23:29;;;;;;;12.80;7.85;;;6.60;99.90;;;;;;5052139;28;20128;-44
2021/11/09 01:25:55;;;;;;;14.75;8.13;;;6.60;99.90;;;;;;5058372;28;20112;-43
2021/11/09 01:28:21;;;;;;;15.90;7.50;;;6.60;99.90;;;;;;5050668;28;20016;-43
2021/11/09 01:30:48;;;;;;;10.77;7.25;;;6.60;99.90;;;;;;5060348;28;20075;-42
2021/11/09 01:33:14;;;;;;;13.82;8.00;;;6.60;99.90;;;;;;5050450;28;20036;-43
2021/11/09 01:35:42;;;;;;;17.17;8.38;;;6.50;99.90;;;;;;5056271;28;20037;-44
2021/11/09 01:38:09;;;;;;;15.13;8.43;;;6.50;99.90;;;;;;5049096;28;20029;-43
2021/11/09 01:40:38;;;;;;;15.23;8.10;;;6.50;99.90;;;;;;5061199;28;20025;-43
2021/11/09 01:43:05;;;;;;;13.02;7.78;;;6.50;99.90;;;;;;5049725;28;20025;-43
2021/11/09 01:45:31;;;;;;;16.30;8.20;;;6.50;99.90;;;;;;5060926;28;20116;-43
2021/11/09 01:47:57;;;;;;;13.57;9.02;;;6.50;99.90;;;;;;5048900;28;20120;-43
2021/11/09 01:50:29;;;;;;;16.63;8.15;;;6.50;99.90;;;;;;5059983;28;20114;-42
2021/11/09 01:52:56;;;;;;;19.17;8.18;;;6.50;99.90;;;;;;5048873;28;20021;-43
2021/11/09 01:55:24;;;;;;;16.48;8.70;;;6.40;99.90;;;;;;5058059;28;20060;-43
2021/11/09 01:57:50;;;;;;;18.63;8.73;;;6.40;99.90;;;;;;5048031;28;20118;-43
2021/11/09 02:00:25;;;;;;;13.80;9.05;;;6.40;99.90;;;;;;5055852;28;20381;-43
2021/11/09 02:02:52;;;;;;;16.17;8.35;;;6.40;99.90;;;;;;5052482;28;20036;-43
2021/11/09 02:05:20;;;;;;;13.35;8.02;;;6.40;99.90;;;;;;5053748;28;20722;-43
2021/11/09 02:07:52;;;;;;;17.95;9.30;;;6.40;99.90;;;;;;5050490;28;20021;-43
2021/11/09 02:10:21;;;;;;;18.90;8.05;;;6.40;99.90;;;;;;5052298;28;20032;-44
2021/11/09 02:12:47;;;;;;;15.77;7.88;;;6.30;99.90;;;;;;5054618;28;20028;-43
2021/11/09 02:15:13;;;;;;;19.60;9.45;;;6.30;99.90;;;;;;5049656;28;20041;-43
2021/11/09 02:17:41;;;;;;;15.55;7.80;;;6.30;99.90;;;;;;5056442;28;20551;-44
2021/11/09 02:20:10;;;;;;;15.43;7.78;;;6.30;99.90;;;;;;5047307;28;20242;-41
2021/11/09 02:22:37;;;;;;;17.00;8.40;;;6.30;99.90;;;;;;5056996;28;20017;-42
2021/11/09 02:25:07;;;;;;;13.05;7.68;;;6.30;99.90;;;;;;5047631;28;20476;-43
2021/11/09 02:27:36;;;;;;;14.00;8.40;;;6.30;99.90;;;;;;5057598;28;20013;-42
2021/11/09 02:30:04;;;;;;;12.05;7.78;;;6.30;99.90;;;;;;5046407;28;20040;-42
2021/11/09 02:32:30;;;;;;;15.52;8.75;;;6.30;99.90;;;;;;5056767;28;20068;-44
2021/11/09 02:34:56;;;;;;;14.85;8.77;;;6.30;99.90;;;;;;5045766;28;20476;-44
2021/11/09 02:37:21;;;;;;;13.95;8.45;;;6.30;99.90;;;;;;5060737;28;20066;-43
2021/11/09 02:39:47;;;;;;;13.20;7.50;;;6.30;99.90;;;;;;5047948;28;20017;-43
2021/11/09 02:42:16;;;;;;;15.48;7.93;;;6.30;99.90;;;;;;5059915;28;20051;-43
2021/11/09 02:44:56;;;;;;;18.48;7.82;;;6.30;99.90;;;;;;5027353;28;20089;-43
2021/11/09 02:47:25;;;;;;;15.32;8.10;;;6.30;99.90;;;;;;5055550;28;20036;-44
2021/11/09 02:52:16;;;;;;;13.77;7.90;;;6.20;99.90;;;;;;5058048;28;20037;-42
2021/11/09 02:54:45;;;;;;;20.10;8.27;;;6.20;99.90;;;;;;5050174;28;20572;-44
2021/11/09 02:57:27;;;;;;;17.13;8.00;;;6.20;99.90;;;;;;5053596;28;20076;-43
2021/11/09 03:00:02;;;;;;;13.05;8.00;;;6.20;99.90;;;;;;5064487;28;20032;-42
2021/11/09 03:10:02;;;;;;;14.05;8.27;;;6.20;99.90;;;;;;5060532;28;20036;-43
2021/11/09 03:12:36;;;;;;;19.65;8.57;;;6.10;99.90;;;;;;5061973;28;20021;-42
2021/11/09 03:15:04;;;;;;;14.82;8.15;;;6.10;99.90;;;;;;5061173;28;20036;-43
2021/11/09 03:17:40;;;;;;;14.73;8.32;;;6.10;99.90;;;;;;5062139;28;20028;-43
2021/11/09 03:20:09;;;;;;;14.18;8.50;;;6.10;99.90;;;;;;5060874;28;20032;-43
2021/11/09 03:44:43;;;;;;;13.57;8.48;;;5.90;99.90;;;;;;5057989;28;20102;-43
2021/11/09 03:47:13;;;;;;;14.32;8.20;;;5.80;99.90;;;;;;5047020;28;20021;-43
2021/11/09 03:49:39;;;;;;;12.43;7.57;;;5.80;99.90;;;;;;5059297;28;20036;-43
2021/11/09 03:52:11;;;;;;;14.00;8.15;;;5.80;99.90;;;;;;5046626;28;20362;-42
2021/11/09 03:54:38;;;;;;;14.75;7.97;;;5.80;99.90;;;;;;5058846;28;20176;-44
2021/11/09 04:02:09;;;;;;;14.77;7.75;;;5.80;99.90;;;;;;5048666;28;20037;-44
2021/11/09 04:04:45;;;;;;;13.80;7.57;;;5.80;99.90;;;;;;5055485;28;20077;-44
2021/11/09 04:07:27;;;;;;;12.75;8.25;;;5.70;99.90;;;;;;5048911;28;20111;-43
2021/11/09 04:10:03;;;;;;;16.13;7.78;;;5.70;99.90;;;;;;5056190;28;20020;-43
2021/11/09 04:12:41;;;;;;;18.20;8.43;;;5.70;99.90;;;;;;5047880;28;20029;-43
2021/11/09 04:18:16;;;;;;;13.35;8.30;;;5.70;99.90;;;;;;5026964;28;20040;-43
2021/11/09 04:26:21;;;;;;;14.20;7.85;;;5.60;99.90;;;;;;5057720;28;20507;-42
2021/11/09 04:29:15;;;;;;;14.65;8.20;;;5.60;99.90;;;;;;5069840;28;20036;-44
2021/11/09 04:53:34;;;;;;;17.85;8.18;;;5.40;99.90;;;;;;5063392;28;20039;-43
2021/11/09 05:09:41;;;;;;;15.68;8.90;;;5.30;99.90;;;;;;5029265;28;20037;-43
2021/11/09 05:12:07;;;;;;;18.52;8.95;;;5.30;99.90;;;;;;5056180;28;20020;-43
2021/11/09 05:14:33;;;;;;;15.23;8.70;;;5.30;99.90;;;;;;5051239;28;20021;-43
2021/11/09 05:17:01;;;;;;;14.55;9.15;;;5.30;99.90;;;;;;5057163;28;20424;-42
2021/11/09 05:19:27;;;;;;;15.45;8.75;;;5.30;99.90;;;;;;5053086;28;20025;-44
2021/11/09 05:21:53;;;;;;;19.25;9.20;;;5.30;99.90;;;;;;5055611;28;20023;-42
2021/11/09 05:24:18;;;;;;;18.02;9.90;;;5.30;99.90;;;;;;5055075;28;20435;-44
2021/11/09 05:26:45;;;;;;;16.98;10.40;;;5.30;99.90;;;;;;5052678;28;20021;-43
2021/11/09 05:29:11;;;;;;;17.95;9.45;;;5.30;99.90;;;;;;5058610;28;20369;-43
2021/11/09 05:31:38;;;;;;;15.32;8.95;;;5.30;99.90;;;;;;5050164;28;20377;-43
2021/11/09 05:34:05;;;;;;;15.95;9.23;;;5.20;99.90;;;;;;5057121;28;20024;-43
2021/11/09 05:36:33;;;;;;;14.95;9.35;;;5.20;99.90;;;;;;5067750;28;20021;-43
2021/11/09 05:39:28;;;;;;;18.75;9.18;;;5.20;99.90;;;;;;5057597;28;20042;-45
2021/11/09 05:41:54;;;;;;;16.05;9.43;;;5.20;99.90;;;;;;5067435;28;20495;-44
2021/11/09 05:44:19;;;;;;;17.67;9.27;;;5.20;99.90;;;;;;5057487;28;20027;-44
2021/11/09 05:46:45;;;;;;;19.52;10.27;;;5.20;99.90;;;;;;5067220;28;20028;-44
2021/11/09 05:49:11;;;;;;;13.38;9.20;;;5.20;99.90;;;;;;5057830;28;20031;-44
2021/11/09 05:51:36;;;;;;;13.43;9.70;;;5.20;99.90;;;;;;5068809;28;20318;-44
2021/11/09 05:54:03;;;;;;;15.25;9.38;;;5.10;99.90;;;;;;5055881;28;20021;-44
2021/11/09 05:56:33;;;;;;;24.63;10.40;;;5.10;99.90;;;;;;5068764;28;20052;-42
2021/11/09 05:59:01;;;;;;;14.63;8.63;;;5.10;99.90;;;;;;5054941;28;20021;-44
2021/11/09 06:01:27;;;;;;;17.00;9.50;;;5.10;99.90;;;;;;5069660;28;20048;-43
2021/11/09 06:03:53;;;;;;;15.38;10.15;;;5.10;99.90;;;;;;5057287;28;20056;-43
2021/11/09 06:06:18;;;;;;;15.18;9.43;;;5.10;99.90;;;;;;5067381;28;20454;-44
2021/11/09 06:08:47;;;;;;;15.77;9.75;;;5.00;99.90;;;;;;5059549;28;20056;-43
2021/11/09 06:11:13;;;;;;;17.23;9.35;;;5.00;99.90;;;;;;5065153;28;20460;-42
2021/11/09 06:13:38;;;;;;;14.73;9.48;;;5.00;99.90;;;;;;5061498;28;20017;-43
2021/11/09 06:16:04;;;;;;;15.75;9.32;;;5.00;99.90;;;;;;5062646;28;20470;-43
2021/11/09 06:18:30;;;;;;;17.88;9.45;;;5.00;99.90;;;;;;5064844;28;20024;-44
2021/11/09 06:20:55;;;;;;;16.05;9.63;;;5.00;99.90;;;;;;5056233;28;20036;-43
2021/11/09 06:23:21;;;;;;;16.58;9.75;;;5.00;99.90;;;;;;5049698;28;20468;-43
2021/11/09 06:25:47;;;;;;;17.73;10.02;;;4.90;99.90;;;;;;5046460;28;20403;-43
2021/11/09 06:28:18;;;;;;;16.42;9.50;;;4.90;99.90;;;;;;5066326;28;20062;-43
2021/11/09 06:30:45;;;;;;;17.45;9.43;;;4.90;99.90;;;;;;5057013;28;20043;-42
2021/11/09 06:33:10;;;;;;;16.50;10.15;;;4.90;99.90;;;;;;5067852;28;20115;-43
2021/11/09 06:35:36;;;;;;;17.77;10.18;;;4.90;99.90;;;;;;5055400;28;20119;-42
2021/11/09 06:38:01;;;;;;;18.17;9.73;;;4.90;99.90;;;;;;5068261;28;20040;-43
2021/11/09 06:40:27;;;;;;;22.48;9.90;;;4.90;99.90;;;;;;5055072;28;20029;-43
2021/11/09 06:42:53;;;;;;;19.80;10.88;;;4.90;99.90;;;;;;5067278;28;20523;-41
2021/11/09 06:45:18;;;;;;;15.88;9.38;;;4.90;99.90;;;;;;5056544;28;20085;-43
2021/11/09 06:47:45;;;;;;;19.00;9.73;;;4.80;99.90;;;;;;5055296;28;20054;-43
2021/11/09 06:50:10;;;;;;;17.40;9.95;;;4.80;99.90;;;;;;5049707;28;20056;-41
2021/11/09 06:52:36;;;;;;;17.23;9.35;;;4.80;99.90;;;;;;5064089;28;20016;-43
2021/11/09 06:55:04;;;;;;;17.38;9.48;;;4.80;99.90;;;;;;5059038;28;20056;-42
2021/11/09 06:57:29;;;;;;;21.40;9.95;;;4.90;99.90;;;;;;5063654;28;20048;-42
2021/11/09 06:59:58;;;;;;;19.17;9.77;;;4.80;99.90;;;;;;5061995;28;20120;-42
2021/11/09 07:02:26;;;;;;;15.40;9.63;;;4.80;99.90;;;;;;5054696;28;20013;-42
2021/11/09 07:04:52;;;;;;;17.15;9.25;;;4.80;99.90;;;;;;5048721;28;20028;-43
2021/11/09 07:07:17;;;;;;;17.73;9.65;;;4.80;99.90;;;;;;5057869;28;20032;-43
2021/11/09 07:09:43;;;;;;;19.02;9.27;;;4.80;99.90;;;;;;5047274;28;20021;-44
2021/11/09 07:12:09;;;;;;;16.50;8.60;;;4.90;99.90;;;;;;5057541;28;20090;-43
2021/11/09 07:14:34;;;;;;;16.75;9.60;;;4.80;99.90;;;;;;5046371;28;20594;-42
2021/11/09 07:17:00;;;;;;;18.00;9.25;;;4.80;99.90;;;;;;5057450;28;20036;-44
2021/11/09 07:19:25;;;;;;;19.15;9.43;;;4.80;99.90;;;;;;5045997;28;20024;-43
2021/11/09 07:21:51;;;;;;;18.25;9.20;;;4.80;99.90;;;;;;5059043;28;20032;-43
2021/11/09 07:24:17;;;;;;;18.27;9.40;;;4.90;99.90;;;;;;5045653;28;20021;-44
2021/11/09 07:26:45;;;;;;;21.55;9.05;;;4.90;99.90;;;;;;5058464;28;20029;-42
2021/11/09 07:29:11;;;;;;;18.38;9.85;;;4.90;99.90;;;;;;5047577;28;20025;-43
2021/11/09 07:31:36;;;;;;;18.38;8.93;;;4.90;99.90;;;;;;5056569;28;20074;-43
2021/11/09 07:34:03;;;;;;;16.55;9.85;;;4.90;99.90;;;;;;5049692;28;20020;-43
2021/11/09 07:36:29;;;;;;;15.18;8.77;;;4.90;99.90;;;;;;5048799;28;20033;-42
2021/11/09 07:38:57;;;;;;;21.73;9.82;;;4.90;99.90;;;;;;5051108;28;20029;-43
2021/11/09 07:41:23;;;;;;;19.55;9.40;;;5.00;99.90;;;;;;5052355;28;20045;-43
2021/11/09 07:43:48;;;;;;;19.80;9.27;;;5.00;99.90;;;;;;5059271;28;20066;-43
2021/11/09 07:46:14;;;;;;;18.48;9.10;;;5.10;99.90;;;;;;5060010;28;20025;-43
2021/11/09 07:48:39;;;;;;;17.10;9.48;;;5.10;99.90;;;;;;5056200;28;20036;-43
2021/11/09 07:51:08;;;;;;;20.38;9.10;;;5.10;99.90;;;;;;5046678;28;20472;-44
2021/11/09 07:53:35;;;;;;;20.52;9.75;;;5.10;99.90;;;;;;5057327;28;20388;-43
2021/11/09 07:56:18;;;;;;;16.65;8.35;;;5.20;99.90;;;;;;5049149;28;20032;-44
2021/11/09 08:01:17;;;;;;;17.17;9.02;;;5.20;99.90;;;;;;5064179;28;20033;-43
2021/11/09 08:03:49;;;;;;;16.13;8.27;;;5.20;99.90;;;;;;5054613;28;20048;-44
2021/11/09 08:06:28;;;;;;;20.38;9.43;;;5.30;99.90;;;;;;5065221;28;20480;-43
2021/11/09 08:11:23;;;;;;;19.33;8.70;;;5.40;99.90;;;;;;5045914;28;20068;-44
2021/11/09 08:13:49;;;;;;;22.35;10.80;;;5.40;99.90;;;;;;5057796;28;20432;-43
2021/11/09 08:16:16;;;;;;;21.65;10.55;;;5.50;99.90;;;;;;5045916;28;20123;-43
2021/11/09 08:18:44;;;;;;;22.67;10.02;;;5.50;99.90;;;;;;5053185;28;20238;-44
2021/11/09 08:21:11;;;;;;;21.85;10.18;;;5.60;99.90;;;;;;5045928;28;20029;-42
2021/11/09 08:23:37;;;;;;;19.13;9.75;;;5.60;99.90;;;;;;5057674;28;20742;-41
2021/11/09 08:26:03;;;;;;;16.75;9.20;;;5.60;99.90;;;;;;5045854;28;20032;-42
2021/11/09 08:28:29;;;;;;;18.25;9.27;;;5.60;99.90;;;;;;5055028;28;20029;-43
2021/11/09 08:31:01;;;;;;;18.60;9.63;;;5.60;99.90;;;;;;5048681;28;20036;-43
2021/11/09 08:33:28;;;;;;;20.20;9.30;;;5.70;99.90;;;;;;5052823;28;20036;-43
2021/11/09 08:35:56;;;;;;;19.70;8.70;;;5.80;99.90;;;;;;5050165;28;20029;-42
2021/11/09 08:38:21;;;;;;;20.83;9.13;;;5.80;99.90;;;;;;5051092;28;20024;-43
2021/11/09 08:40:48;;;;;;;18.63;8.88;;;5.80;99.90;;;;;;5051871;28;20036;-44
2021/11/09 08:43:18;;;;;;;18.60;8.95;;;5.90;99.90;;;;;;5048926;28;20033;-43
2021/11/09 08:46:02;;;;;;;17.30;8.10;;;5.90;99.90;;;;;;5054047;28;20064;-43
2021/11/09 08:48:34;;;;;;;20.25;8.45;;;6.00;99.90;;;;;;5048811;28;20568;-43
2021/11/09 08:50:59;;;;;;;16.70;7.97;;;6.10;99.90;;;;;;5053576;28;20120;-44
2021/11/09 08:53:32;;;;;;;18.10;8.40;;;6.10;99.90;;;;;;5047086;28;20108;-43
2021/11/09 09:01:31;;;;;;;16.70;8.30;;;6.30;99.90;;;;;;5056148;28;20052;-43
2021/11/09 09:15:32;;;;;;;22.98;12.20;;;6.40;99.90;;;;;;5121878;27;20446;-42
2021/11/09 09:17:59;;;;;;;25.77;11.65;;;7.30;99.90;;;;;;5121836;27;20506;-42
2021/11/09 09:20:28;;;;;;;24.25;10.63;;;7.30;99.90;;;;;;5123282;27;20106;-43
2021/11/09 09:25:37;;;;;;;11.18;7.35;;;7.40;99.90;;;;;;5122551;28;20063;-43
2021/11/09 09:55:19;;;;;;;11.35;6.93;;;7.70;99.90;;;;;;5122367;28;20027;-43
2021/11/09 09:57:45;;;;;;;19.85;8.63;;;7.70;99.90;;;;;;5122926;27;20030;-43
2021/11/09 10:00:11;;;;;;;17.88;8.00;;;7.80;99.90;;;;;;5122469;27;20027;-42
2021/11/09 10:02:57;;;;;;;14.43;7.95;;;7.80;99.90;;;;;;5122112;27;20023;-43
2021/11/09 10:05:25;;;;;;;18.23;8.95;;;7.90;99.90;;;;;;5104171;27;20043;-43
2021/11/09 10:07:56;;;;;;;19.25;9.38;;;8.00;99.90;;;;;;5122303;27;20015;-43
2021/11/09 10:10:33;;;;;;;19.45;9.25;;;8.00;99.90;;;;;;5122508;27;20031;-43
2021/11/09 10:13:04;;;;;;;20.50;9.75;;;8.10;99.90;;;;;;5119503;28;20440;-44
2021/11/09 10:15:33;;;;;;;17.98;8.90;;;8.10;99.90;;;;;;5113914;28;20046;-42
2021/11/09 10:18:06;;;;;;;22.00;11.13;;;8.10;99.90;;;;;;5107882;28;20047;-43
2021/11/09 10:20:45;;;;;;;17.75;9.18;;;8.20;99.90;;;;;;5108906;28;20447;-43
2021/11/09 10:23:16;;;;;;;21.77;11.80;;;8.20;99.90;;;;;;5108723;28;20031;-44
2021/11/09 10:25:41;;;;;;;15.57;9.60;;;8.30;99.90;;;;;;5108595;28;20027;-42
2021/11/09 10:28:14;;;;;;;19.25;11.98;;;8.30;99.90;;;;;;5108145;28;20382;-44
2021/11/09 10:30:46;;;;;;;24.05;12.35;;;8.40;99.90;;;;;;5108659;28;20055;-43
2021/11/09 10:33:14;;;;;;;24.88;13.13;;;8.40;99.90;;;;;;5108428;28;20024;-42
2021/11/09 10:35:41;;;;;;;13.93;9.70;;;8.50;99.90;;;;;;5107975;28;20046;-42
2021/11/09 10:38:08;;;;;;;19.05;11.23;;;8.60;99.90;;;;;;5108358;27;20633;-42
2021/11/09 10:40:42;;;;;;;20.33;10.55;;;8.60;99.90;;;;;;5108243;28;20030;-42
2021/11/09 10:43:10;;;;;;;13.70;8.65;;;8.70;99.90;;;;;;5107770;28;20067;-43
2021/11/09 10:45:38;;;;;;;19.38;9.23;;;8.70;99.90;;;;;;5108330;28;20035;-42
2021/11/09 10:48:13;;;;;;;16.45;9.15;;;8.80;99.90;;;;;;5109214;28;20030;-42
2021/11/09 10:50:43;;;;;;;16.40;9.43;;;8.80;99.90;;;;;;5108355;28;20042;-43
2021/11/09 10:53:16;;;;;;;20.60;10.07;;;8.90;99.90;;;;;;5108393;28;20038;-42
2021/11/09 10:55:53;;;;;;;;;;;8.90;99.90;;;;;;5108434;28;20027;-42
2021/11/09 10:58:39;;;;;;;16.45;8.50;;;9.00;99.90;;;;;;5108757;28;20277;-43
2021/11/09 11:06:33;;;;;;;16.80;9.10;;;9.20;99.90;;;;;;5108054;28;20112;-43
2021/11/09 11:09:11;;;;;;;16.15;8.18;;;9.20;99.90;;;;;;5107961;28;20286;-44
2021/11/09 11:12:05;;;;;;;16.02;7.82;;;9.20;99.90;;;;;;5089641;28;20028;-43
2021/11/09 11:14:32;;;;;;;20.38;9.05;;;9.30;99.90;;;;;;5098384;27;20055;-43
2021/11/09 11:17:03;;;;;;;16.75;9.48;;;9.30;99.90;;;;;;5106552;27;20035;-43
2021/11/09 11:19:31;;;;;;;20.70;8.67;;;9.40;99.90;;;;;;5107682;28;20024;-44
2021/11/09 11:22:05;;;;;;;14.32;7.57;;;9.50;99.90;;;;;;5086832;28;20633;-42
2021/11/09 11:24:31;;;;;;;19.60;8.43;;;9.50;99.90;;;;;;5101654;28;20040;-43
2021/11/09 11:26:58;;;;;;;20.98;9.05;;;9.60;99.90;;;;;;5106302;28;20547;-43
2021/11/09 11:29:26;;;;;;;15.93;8.25;;;9.70;99.90;;;;;;5107151;28;20122;-43
2021/11/09 11:31:53;;;;;;;15.02;6.95;;;9.70;99.90;;;;;;5106460;28;20569;-43
2021/11/09 11:34:20;;;;;;;18.20;8.15;;;9.80;99.90;;;;;;5106535;28;20382;-42
2021/11/09 11:36:48;;;;;;;17.70;7.65;;;9.80;99.90;;;;;;5105161;28;20031;-42
2021/11/09 11:39:15;;;;;;;18.52;7.90;;;9.90;99.90;;;;;;5106472;28;20148;-43
2021/11/09 11:41:45;;;;;;;15.77;7.45;;;9.90;99.90;;;;;;5106210;28;20029;-44
2021/11/09 11:44:19;;;;;;;18.70;8.43;;;10.00;99.90;;;;;;5107052;28;20039;-43
2021/11/09 11:47:09;;;;;;;18.73;7.88;;;10.10;99.90;;;;;;5106011;28;20027;-44
2021/11/09 11:49:41;;;;;;;8.52;5.40;;;10.10;99.90;;;;;;5094497;28;20023;-43
2021/11/09 11:52:13;;;;;;;13.65;6.50;;;10.10;99.90;;;;;;5106746;28;20458;-42
2021/11/09 11:54:48;;;;;;;16.10;6.10;;;10.20;99.90;;;;;;5106397;28;20110;-43
2021/11/09 11:57:31;;;;;;;13.38;5.82;;;10.20;99.90;;;;;;5107016;28;20024;-42
2021/11/09 11:59:57;;;;;;;13.40;6.78;;;10.20;99.90;;;;;;5105874;28;20038;-44
2021/11/09 12:02:35;;;;;;;13.65;6.07;;;10.20;99.90;;;;;;5107101;28;20019;-44
2021/11/09 12:05:01;;;;;;;17.10;7.40;;;10.20;99.90;;;;;;5103863;28;20035;-44
2021/11/09 12:08:02;;;;;;;14.52;6.80;;;10.30;99.90;;;;;;5105994;28;20027;-43
2021/11/09 12:10:57;;;;;;;16.42;6.90;;;10.30;99.90;;;;;;5023459;28;20109;-44
2021/11/09 12:13:23;;;;;;;13.05;5.68;;;10.40;99.90;;;;;;5096369;28;20027;-44
2021/11/09 12:15:51;;;;;;;11.82;5.10;;;10.40;99.90;;;;;;5106631;28;20031;-43
2021/11/09 12:18:32;;;;;;;17.92;7.20;;;10.40;99.90;;;;;;5107346;28;20078;-42
2021/11/09 12:21:00;;;;;;;26.00;8.55;;;10.50;99.90;;;;;;5105266;28;20076;-43
2021/11/09 12:23:30;;;;;;;13.85;7.03;;;10.50;99.90;;;;;;5106847;28;20020;-43
2021/11/09 12:25:56;;;;;;;17.67;6.93;;;10.60;99.90;;;;;;5106775;28;20108;-42
2021/11/09 12:28:42;;;;;;;14.38;6.82;;;10.60;99.90;;;;;;5106612;28;20055;-43
2021/11/09 12:31:12;;;;;;;13.05;6.38;;;10.70;99.90;;;;;;5106008;28;20039;-43
2021/11/09 12:33:49;;;;;;;17.08;7.30;;;10.70;99.90;;;;;;5106499;28;20047;-43
2021/11/09 12:36:19;;;;;;;13.70;6.20;;;10.80;99.90;;;;;;5106670;28;20015;-44
2021/11/09 12:38:51;;;;;;;13.13;5.80;;;10.80;99.90;;;;;;5106128;28;20487;-42
2021/11/09 12:41:19;;;;;;;10.07;5.97;;;10.90;99.90;;;;;;5106343;28;20024;-43
2021/11/09 12:43:52;;;;;;;16.00;6.45;;;10.90;99.90;;;;;;5105569;28;20041;-44
2021/11/09 12:46:28;;;;;;;16.08;7.72;;;11.00;99.90;;;;;;5106383;28;20030;-43
2021/11/09 12:49:14;;;;;;;15.95;6.90;;;11.00;99.90;;;;;;5106234;28;20028;-43
2021/11/09 12:51:46;;;;;;;16.92;6.78;;;11.00;99.90;;;;;;5105785;28;20020;-43
2021/11/09 12:54:33;;;;;;;19.00;8.45;;;11.00;99.90;;;;;;5106595;28;20024;-44
2021/11/09 12:57:06;;;;;;;14.77;7.35;;;11.00;99.90;;;;;;5092686;28;20558;-43
2021/11/09 13:04:53;;;;;;;17.42;6.95;;;11.10;99.90;;;;;;5106075;28;20104;-43
2021/11/09 13:10:21;;;;;;;12.45;6.68;;;11.10;99.90;;;;;;5106377;28;20043;-43
2021/11/09 13:12:50;;;;;;;17.15;7.10;;;11.10;99.90;;;;;;5106262;28;20046;-43
2021/11/09 13:15:18;;;;;;;15.25;6.35;;;11.10;99.90;;;;;;5106903;28;20542;-43
2021/11/09 13:18:03;;;;;;;10.40;5.53;;;11.10;99.90;;;;;;5104836;28;20026;-44
2021/11/09 13:23:15;;;;;;;14.35;6.05;;;11.10;99.90;;;;;;5106191;28;20043;-44
2021/11/09 13:25:55;;;;;;;11.15;6.25;;;11.20;99.90;;;;;;5115052;28;20212;-43
2021/11/09 13:28:33;;;;;;;11.05;6.07;;;11.20;99.90;;;;;;5107879;27;20491;-43
2021/11/09 13:31:07;;;;;;;14.35;6.55;;;11.20;99.90;;;;;;5101197;28;20068;-43
2021/11/09 13:33:39;;;;;;;16.00;7.53;;;11.20;99.90;;;;;;5107430;28;20050;-42
2021/11/09 13:36:06;;;;;;;13.90;6.95;;;11.20;99.90;;;;;;5109468;28;20031;-43
2021/11/09 13:38:39;;;;;;;16.05;7.45;;;11.10;99.90;;;;;;5105322;28;20498;-44
2021/11/09 13:41:04;;;;;;;;;;;11.20;99.90;;;;;;5107202;28;20031;-43
2021/11/09 13:43:37;;;;;;;17.77;8.02;;;11.20;99.90;;;;;;5099441;28;19912;-44
2021/11/09 13:46:04;;;;;;;;;;;11.20;99.90;;;;;;5107827;28;20157;-43
2021/11/09 13:48:32;;;;;;;12.23;5.65;;;11.30;99.90;;;;;;5112064;28;20248;-43
2021/11/09 13:51:03;;;;;;;11.00;5.15;;;11.30;99.90;;;;;;5099659;28;20492;-43
2021/11/09 13:53:40;;;;;;;15.70;6.20;;;11.30;99.90;;;;;;5109965;27;20114;-43
2021/11/09 13:56:16;;;;;;;12.85;5.65;;;11.30;99.90;;;;;;5110896;27;20032;-44
2021/11/09 13:58:53;;;;;;;12.63;5.50;;;11.30;99.90;;;;;;5119520;27;20349;-43
2021/11/09 14:01:42;;;;;;;10.20;5.30;;;11.30;99.90;;;;;;5108094;28;20027;-43
2021/11/09 14:07:42;;;;;;;16.48;5.57;;;11.30;99.90;;;;;;5105708;28;20528;-43
2021/11/09 14:10:38;;;;;;;13.60;6.03;;;11.40;99.90;;;;;;5111222;27;20521;-43
2021/11/09 14:18:17;;;;;;;11.52;5.20;;;11.50;99.90;;;;;;5110315;27;20142;-44
2021/11/09 14:21:01;;;;;;;13.43;5.60;;;11.60;99.90;;;;;;5106964;28;20038;-42
2021/11/09 14:23:34;;;;;;;13.88;6.03;;;11.70;99.90;;;;;;5108413;27;20031;-42
2021/11/09 14:26:24;;;;;;;13.80;5.20;;;11.70;99.90;;;;;;5108652;27;20019;-43
2021/11/09 14:28:53;;;;;;;15.38;5.40;;;11.80;99.90;;;;;;5108157;27;20027;-43
2021/11/09 14:31:25;;;;;;;13.20;5.40;;;11.80;99.90;;;;;;5107271;27;20073;-43
2021/11/09 14:33:52;;;;;;;9.40;4.40;;;11.80;99.90;;;;;;5121511;27;20030;-43
2021/11/09 14:36:32;;;;;;;12.05;4.35;;;11.80;99.90;;;;;;5109933;27;20032;-44
2021/11/09 14:39:25;;;;;;;8.05;4.05;;;11.90;99.90;;;;;;5114823;27;20467;-42
2021/11/09 14:42:16;;;;;;;9.30;4.05;;;11.90;99.90;;;;;;5116583;27;20020;-43
2021/11/09 14:45:19;;;;;;;10.25;4.57;;;11.90;99.90;;;;;;5092397;27;20043;-43
2021/11/09 14:47:48;;;;;;;9.48;4.38;;;11.90;99.90;;;;;;5100891;27;20057;-43
2021/11/09 14:50:35;;;;;;;13.35;4.28;;;11.90;99.90;;;;;;5119708;27;20057;-43
2021/11/09 14:53:21;;;;;;;12.32;4.75;;;11.90;99.90;;;;;;5116994;27;20055;-43
2021/11/09 14:56:15;;;;;;;11.80;4.82;;;11.90;99.90;;;;;;5113660;27;20035;-41
2021/11/09 14:58:51;;;;;;;13.00;4.68;;;11.90;99.90;;;;;;5114961;27;20351;-43
2021/11/09 15:01:43;;;;;;;10.40;5.07;;;11.80;99.90;;;;;;5117106;27;20076;-43
2021/11/09 15:04:19;;;;;;;13.90;4.82;;;11.70;99.90;;;;;;5123871;27;20451;-43
2021/11/09 15:07:01;;;;;;;11.55;4.30;;;11.60;99.90;;;;;;5107175;28;20057;-43
2021/11/09 15:29:51;;;;;;;16.23;5.30;;;11.30;99.90;;;;;;5107559;28;20035;-43
2021/11/09 15:32:09;;;;;;;12.20;4.80;;;11.40;99.90;;;;;;5100449;28;20027;-43
2021/11/09 15:34:52;;;;;;;12.13;4.30;;;11.40;99.90;;;;;;5107631;28;20027;-43
2021/11/09 15:37:32;;;;;;;11.82;4.47;;;11.40;99.90;;;;;;5107197;28;20063;-45
2021/11/09 15:39:59;;;;;;;10.70;4.15;;;11.40;99.90;;;;;;5107629;28;20034;-43
2021/11/09 15:42:27;;;;;;;9.10;4.00;;;11.40;99.90;;;;;;5108598;28;20016;-43
2021/11/09 15:44:54;;;;;;;12.82;4.18;;;11.30;99.90;;;;;;5106011;28;20599;-43
2021/11/09 15:47:20;;;;;;;8.73;4.00;;;11.30;99.90;;;;;;5106294;28;20441;-44
2021/11/09 15:49:46;;;;;;;13.27;4.50;;;11.30;99.90;;;;;;5106939;28;20051;-42
2021/11/09 15:52:11;;;;;;;9.98;4.20;;;11.20;99.90;;;;;;5106234;28;20049;-42
2021/11/09 15:54:37;;;;;;;9.05;4.43;;;11.20;99.90;;;;;;5107333;28;20020;-43
2021/11/09 15:57:03;;;;;;;12.50;3.97;;;11.10;99.90;;;;;;5106413;28;20047;-44
2021/11/09 15:59:28;;;;;;;8.23;4.25;;;11.10;99.90;;;;;;5106685;28;20027;-43
2021/11/09 16:01:54;;;;;;;13.68;5.05;;;11.00;99.90;;;;;;5107542;28;20038;-44